sensor_id;sensor_type;location;lat;lon;timestamp;pressure;altitude;pressure_sealevel;temperature;humidity
61136;BME280;47021;51.340;12.432;2023-04-03T00:03:32;101387.59;;;4.90;59.72
61136;BME280;47021;51.340;12.432;2023-04-03T00:06:11;101391.75;;;4.94;59.32
61136;BME280;47021;51.340;12.432;2023-04-03T00:08:36;101390.09;;;4.70;59.39
61136;BME280;47021;51.340;12.432;2023-04-03T00:11:01;101382.53;;;4.87;59.44
61136;BME280;47021;51.340;12.432;2023-04-03T00:13:27;101386.66;;;4.92;59.17
61136;BME280;47021;51.340;12.432;2023-04-03T00:15:52;101393.84;;;4.84;59.42
61136;BME280;47021;51.340;12.432;2023-04-03T00:18:17;101385.16;;;5.29;58.61
61136;BME280;47021;51.340;12.432;2023-04-03T00:23:26;101391.72;;;4.72;59.31
61136;BME280;47021;51.340;12.432;2023-04-03T00:25:52;101397.94;;;4.68;59.59
61136;BME280;47021;51.340;12.432;2023-04-03T00:31:01;101402.91;;;4.28;60.99
61136;BME280;47021;51.340;12.432;2023-04-03T00:33:28;101400.59;;;4.44;60.15
61136;BME280;47021;51.340;12.432;2023-04-03T00:38:37;101399.59;;;4.48;59.62
61136;BME280;47021;51.340;12.432;2023-04-03T00:43:47;101405.25;;;4.57;59.57
61136;BME280;47021;51.340;12.432;2023-04-03T00:46:19;101399.44;;;4.74;59.43
61136;BME280;47021;51.340;12.432;2023-04-03T00:51:45;101404.38;;;4.35;60.36
61136;BME280;47021;51.340;12.432;2023-04-03T00:54:12;101407.59;;;4.42;60.42
61136;BME280;47021;51.340;12.432;2023-04-03T00:56:37;101406.06;;;4.36;60.33
61136;BME280;47021;51.340;12.432;2023-04-03T00:59:08;101409.91;;;4.01;60.99
61136;BME280;47021;51.340;12.432;2023-04-03T01:01:35;101411.91;;;4.41;59.67
61136;BME280;47021;51.340;12.432;2023-04-03T01:04:01;101411.38;;;4.32;59.94
61136;BME280;47021;51.340;12.432;2023-04-03T01:06:28;101421.25;;;3.97;61.10
61136;BME280;47021;51.340;12.432;2023-04-03T01:08:55;101418.75;;;4.19;60.80
61136;BME280;47021;51.340;12.432;2023-04-03T01:11:26;101407.91;;;4.33;60.08
61136;BME280;47021;51.340;12.432;2023-04-03T01:13:52;101414.09;;;4.05;60.94
61136;BME280;47021;51.340;12.432;2023-04-03T01:16:25;101413.44;;;4.23;60.53
61136;BME280;47021;51.340;12.432;2023-04-03T01:18:52;101419.81;;;4.37;60.52
61136;BME280;47021;51.340;12.432;2023-04-03T01:24:19;101418.25;;;4.33;60.36
61136;BME280;47021;51.340;12.432;2023-04-03T01:26:48;101423.63;;;4.73;59.51
61136;BME280;47021;51.340;12.432;2023-04-03T01:31:58;101424.59;;;4.01;60.98
61136;BME280;47021;51.340;12.432;2023-04-03T01:34:38;101423.19;;;4.15;60.32
61136;BME280;47021;51.340;12.432;2023-04-03T01:37:04;101431.56;;;4.22;60.71
61136;BME280;47021;51.340;12.432;2023-04-03T01:42:13;101425.09;;;3.61;62.37
61136;BME280;47021;51.340;12.432;2023-04-03T01:53:08;101432.75;;;3.38;62.92
61136;BME280;47021;51.340;12.432;2023-04-03T01:55:33;101436.34;;;3.34;63.12
61136;BME280;47021;51.340;12.432;2023-04-03T01:58:10;101439.41;;;3.19;63.31
61136;BME280;47021;51.340;12.432;2023-04-03T02:00:35;101447.59;;;3.31;63.17
61136;BME280;47021;51.340;12.432;2023-04-03T02:03:00;101452.53;;;3.39;62.98
61136;BME280;47021;51.340;12.432;2023-04-03T02:05:25;101443.81;;;3.68;62.64
61136;BME280;47021;51.340;12.432;2023-04-03T02:07:53;101452.88;;;3.54;62.36
61136;BME280;47021;51.340;12.432;2023-04-03T02:10:18;101456.63;;;3.18;63.40
61136;BME280;47021;51.340;12.432;2023-04-03T02:13:01;101453.84;;;3.24;63.04
61136;BME280;47021;51.340;12.432;2023-04-03T02:15:33;101446.31;;;3.44;62.96
61136;BME280;47021;51.340;12.432;2023-04-03T02:17:58;101462.44;;;3.51;62.52
61136;BME280;47021;51.340;12.432;2023-04-03T02:20:29;101455.78;;;3.70;62.25
61136;BME280;47021;51.340;12.432;2023-04-03T02:22:57;101454.34;;;3.35;63.10
61136;BME280;47021;51.340;12.432;2023-04-03T02:25:23;101457.88;;;3.33;63.25
61136;BME280;47021;51.340;12.432;2023-04-03T02:27:48;101459.66;;;3.03;63.54
61136;BME280;47021;51.340;12.432;2023-04-03T02:32:57;101465.66;;;3.31;63.51
61136;BME280;47021;51.340;12.432;2023-04-03T02:35:28;101470.84;;;3.04;64.04
61136;BME280;47021;51.340;12.432;2023-04-03T02:40:37;101480.00;;;2.84;64.59
61136;BME280;47021;51.340;12.432;2023-04-03T02:43:03;101482.22;;;2.97;64.69
61136;BME280;47021;51.340;12.432;2023-04-03T02:48:12;101483.44;;;2.85;64.97
61136;BME280;47021;51.340;12.432;2023-04-03T02:50:45;101480.53;;;2.68;65.60
61136;BME280;47021;51.340;12.432;2023-04-03T02:53:25;101485.69;;;2.68;65.37
61136;BME280;47021;51.340;12.432;2023-04-03T02:55:51;101483.13;;;2.66;65.28
61136;BME280;47021;51.340;12.432;2023-04-03T02:58:16;101483.72;;;2.76;65.18
61136;BME280;47021;51.340;12.432;2023-04-03T03:00:41;101481.59;;;2.59;65.48
61136;BME280;47021;51.340;12.432;2023-04-03T03:03:21;101487.97;;;2.48;65.58
61136;BME280;47021;51.340;12.432;2023-04-03T03:08:30;101488.00;;;2.46;66.09
61136;BME280;47021;51.340;12.432;2023-04-03T03:10:56;101488.13;;;2.72;65.15
61136;BME280;47021;51.340;12.432;2023-04-03T03:13:27;101489.53;;;2.53;65.39
61136;BME280;47021;51.340;12.432;2023-04-03T03:15:52;101489.97;;;2.38;66.13
61136;BME280;47021;51.340;12.432;2023-04-03T03:18:18;101493.38;;;2.39;66.95
61136;BME280;47021;51.340;12.432;2023-04-03T03:20:54;101489.59;;;2.50;65.67
61136;BME280;47021;51.340;12.432;2023-04-03T03:23:26;101493.69;;;2.59;65.11
61136;BME280;47021;51.340;12.432;2023-04-03T03:26:03;101496.59;;;2.76;64.92
61136;BME280;47021;51.340;12.432;2023-04-03T03:31:12;101503.88;;;2.63;65.46
61136;BME280;47021;51.340;12.432;2023-04-03T03:33:38;101508.97;;;2.65;65.54
61136;BME280;47021;51.340;12.432;2023-04-03T03:36:05;101504.41;;;2.44;66.01
61136;BME280;47021;51.340;12.432;2023-04-03T03:44:05;101504.88;;;2.87;64.77
61136;BME280;47021;51.340;12.432;2023-04-03T03:46:37;101508.22;;;2.31;65.81
61136;BME280;47021;51.340;12.432;2023-04-03T03:49:04;101510.22;;;2.20;66.51
61136;BME280;47021;51.340;12.432;2023-04-03T03:51:31;101513.16;;;2.38;66.30
61136;BME280;47021;51.340;12.432;2023-04-03T03:54:09;101516.63;;;2.37;65.90
61136;BME280;47021;51.340;12.432;2023-04-03T03:59:18;101517.94;;;2.52;66.08
61136;BME280;47021;51.340;12.432;2023-04-03T04:01:43;101522.16;;;2.54;65.76
61136;BME280;47021;51.340;12.432;2023-04-03T04:04:09;101527.63;;;2.73;65.24
61136;BME280;47021;51.340;12.432;2023-04-03T04:06:34;101527.41;;;2.19;66.86
61136;BME280;47021;51.340;12.432;2023-04-03T04:09:12;101523.00;;;2.24;66.33
61136;BME280;47021;51.340;12.432;2023-04-03T04:11:43;101528.41;;;2.13;66.61
61136;BME280;47021;51.340;12.432;2023-04-03T04:14:10;101538.16;;;2.35;66.33
61136;BME280;47021;51.340;12.432;2023-04-03T04:16:38;101533.66;;;2.43;66.11
61136;BME280;47021;51.340;12.432;2023-04-03T04:19:10;101530.84;;;2.18;66.52
61136;BME280;47021;51.340;12.432;2023-04-03T04:21:42;101534.03;;;1.95;67.00
61136;BME280;47021;51.340;12.432;2023-04-03T04:24:14;101531.34;;;2.32;66.30
61136;BME280;47021;51.340;12.432;2023-04-03T04:26:39;101533.25;;;2.26;66.53
61136;BME280;47021;51.340;12.432;2023-04-03T04:29:05;101549.34;;;2.01;67.23
61136;BME280;47021;51.340;12.432;2023-04-03T04:34:05;101541.72;;;1.97;67.23
61136;BME280;47021;51.340;12.432;2023-04-03T04:36:41;101542.19;;;2.11;66.92
61136;BME280;47021;51.340;12.432;2023-04-03T04:39:07;101535.13;;;2.19;66.42
61136;BME280;47021;51.340;12.432;2023-04-03T04:41:34;101543.97;;;2.09;66.07
61136;BME280;47021;51.340;12.432;2023-04-03T04:44:02;101552.38;;;2.17;66.54
61136;BME280;47021;51.340;12.432;2023-04-03T04:46:27;101541.88;;;2.25;66.48
61136;BME280;47021;51.340;12.432;2023-04-03T04:48:53;101548.53;;;2.32;65.91
61136;BME280;47021;51.340;12.432;2023-04-03T04:51:24;101559.88;;;1.91;66.61
61136;BME280;47021;51.340;12.432;2023-04-03T04:53:52;101556.97;;;2.06;66.27
61136;BME280;47021;51.340;12.432;2023-04-03T04:56:18;101561.19;;;2.07;66.59
61136;BME280;47021;51.340;12.432;2023-04-03T04:58:43;101562.50;;;2.23;65.90
61136;BME280;47021;51.340;12.432;2023-04-03T05:01:10;101564.59;;;2.09;66.55
61136;BME280;47021;51.340;12.432;2023-04-03T05:03:47;101562.84;;;2.09;66.57
61136;BME280;47021;51.340;12.432;2023-04-03T05:06:12;101570.31;;;2.20;66.20
61136;BME280;47021;51.340;12.432;2023-04-03T05:08:39;101571.81;;;1.95;66.48
61136;BME280;47021;51.340;12.432;2023-04-03T05:11:06;101566.59;;;1.98;66.38
61136;BME280;47021;51.340;12.432;2023-04-03T05:13:45;101561.28;;;2.38;65.59
61136;BME280;47021;51.340;12.432;2023-04-03T05:16:17;101563.53;;;2.18;65.71
61136;BME280;47021;51.340;12.432;2023-04-03T05:18:44;101578.44;;;2.05;66.50
61136;BME280;47021;51.340;12.432;2023-04-03T05:21:12;101575.28;;;1.94;66.86
61136;BME280;47021;51.340;12.432;2023-04-03T05:31:53;101583.53;;;2.06;66.03
61136;BME280;47021;51.340;12.432;2023-04-03T05:34:28;101582.66;;;2.07;65.45
61136;BME280;47021;51.340;12.432;2023-04-03T05:42:23;101585.50;;;2.63;64.24
61136;BME280;47021;51.340;12.432;2023-04-03T05:44:49;101591.59;;;2.60;64.82
61136;BME280;47021;51.340;12.432;2023-04-03T05:47:27;101590.66;;;2.94;63.26
61136;BME280;47021;51.340;12.432;2023-04-03T05:49:53;101589.00;;;2.60;64.04
61136;BME280;47021;51.340;12.432;2023-04-03T05:57:31;101602.84;;;2.89;63.67
61136;BME280;47021;51.340;12.432;2023-04-03T05:59:58;101597.50;;;2.95;63.26
61136;BME280;47021;51.340;12.432;2023-04-03T06:02:23;101607.97;;;2.90;63.45
61136;BME280;47021;51.340;12.432;2023-04-03T06:07:41;101607.19;;;2.56;63.87
61136;BME280;47021;51.340;12.432;2023-04-03T06:10:13;101608.16;;;2.82;63.55
61136;BME280;47021;51.340;12.432;2023-04-03T06:12:40;101615.81;;;2.85;63.03
61136;BME280;47021;51.340;12.432;2023-04-03T06:15:05;101617.00;;;2.42;64.04
61136;BME280;47021;51.340;12.432;2023-04-03T06:17:31;101610.94;;;3.06;62.65
61136;BME280;47021;51.340;12.432;2023-04-03T06:20:02;101613.25;;;3.15;62.95
61136;BME280;47021;51.340;12.432;2023-04-03T06:22:35;101609.25;;;2.74;62.94
61136;BME280;47021;51.340;12.432;2023-04-03T06:27:45;101617.38;;;2.91;62.72
61136;BME280;47021;51.340;12.432;2023-04-03T06:30:10;101615.69;;;2.90;62.36
61136;BME280;47021;51.340;12.432;2023-04-03T06:32:35;101620.94;;;3.18;62.37
61136;BME280;47021;51.340;12.432;2023-04-03T06:35:03;101622.34;;;3.28;62.10
61136;BME280;47021;51.340;12.432;2023-04-03T06:37:29;101622.38;;;2.97;62.20
61136;BME280;47021;51.340;12.432;2023-04-03T06:40:00;101616.75;;;2.83;62.85
61136;BME280;47021;51.340;12.432;2023-04-03T06:42:32;101621.06;;;2.82;62.76
61136;BME280;47021;51.340;12.432;2023-04-03T06:45:05;101630.72;;;3.05;62.23
61136;BME280;47021;51.340;12.432;2023-04-03T06:47:31;101632.22;;;3.14;62.40
61136;BME280;47021;51.340;12.432;2023-04-03T06:49:57;101631.31;;;3.45;61.85
61136;BME280;47021;51.340;12.432;2023-04-03T06:52:23;101626.88;;;2.89;61.76
61136;BME280;47021;51.340;12.432;2023-04-03T06:54:49;101632.59;;;3.31;61.01
61136;BME280;47021;51.340;12.432;2023-04-03T06:57:15;101631.19;;;3.76;60.07
61136;BME280;47021;51.340;12.432;2023-04-03T06:59:48;101634.19;;;3.35;60.25
61136;BME280;47021;51.340;12.432;2023-04-03T07:02:13;101641.16;;;3.61;59.40
61136;BME280;47021;51.340;12.432;2023-04-03T07:04:39;101633.44;;;3.31;59.86
61136;BME280;47021;51.340;12.432;2023-04-03T07:07:10;101633.97;;;3.70;59.48
61136;BME280;47021;51.340;12.432;2023-04-03T07:09:41;101636.56;;;3.98;58.00
61136;BME280;47021;51.340;12.432;2023-04-03T07:12:18;101634.13;;;3.93;58.14
61136;BME280;47021;51.340;12.432;2023-04-03T07:14:45;101634.97;;;4.20;57.16
61136;BME280;47021;51.340;12.432;2023-04-03T07:17:12;101640.22;;;3.91;57.31
61136;BME280;47021;51.340;12.432;2023-04-03T07:19:44;101638.63;;;4.14;57.26
61136;BME280;47021;51.340;12.432;2023-04-03T07:22:09;101631.34;;;4.76;55.92
61136;BME280;47021;51.340;12.432;2023-04-03T07:24:35;101642.56;;;4.51;55.59
61136;BME280;47021;51.340;12.432;2023-04-03T07:27:01;101642.69;;;4.21;56.18
61136;BME280;47021;51.340;12.432;2023-04-03T07:29:34;101657.59;;;4.13;56.14
61136;BME280;47021;51.340;12.432;2023-04-03T07:32:02;101641.84;;;4.21;56.35
61136;BME280;47021;51.340;12.432;2023-04-03T07:34:28;101650.09;;;4.57;54.99
61136;BME280;47021;51.340;12.432;2023-04-03T07:36:59;101656.84;;;4.36;55.10
61136;BME280;47021;51.340;12.432;2023-04-03T07:42:08;101651.63;;;4.38;54.93
61136;BME280;47021;51.340;12.432;2023-04-03T07:44:35;101644.25;;;4.52;55.14
61136;BME280;47021;51.340;12.432;2023-04-03T07:47:09;101662.91;;;4.35;54.95
61136;BME280;47021;51.340;12.432;2023-04-03T07:49:42;101653.41;;;4.36;54.62
61136;BME280;47021;51.340;12.432;2023-04-03T07:52:09;101651.22;;;4.99;53.10
61136;BME280;47021;51.340;12.432;2023-04-03T07:54:35;101648.91;;;4.91;53.63
61136;BME280;47021;51.340;12.432;2023-04-03T07:57:08;101663.34;;;4.72;54.64
61136;BME280;47021;51.340;12.432;2023-04-03T07:59:47;101653.94;;;5.19;53.21
61136;BME280;47021;51.340;12.432;2023-04-03T08:02:12;101660.69;;;5.46;52.95
61136;BME280;47021;51.340;12.432;2023-04-03T08:04:40;101654.69;;;5.67;53.05
61136;BME280;47021;51.340;12.432;2023-04-03T08:07:05;101659.09;;;4.71;53.65
61136;BME280;47021;51.340;12.432;2023-04-03T08:09:31;101658.97;;;4.50;54.28
61136;BME280;47021;51.340;12.432;2023-04-03T08:14:42;101660.22;;;4.38;54.16
61136;BME280;47021;51.340;12.432;2023-04-03T08:17:09;101654.72;;;5.21;52.57
61136;BME280;47021;51.340;12.432;2023-04-03T08:19:36;101644.44;;;4.46;52.94
61136;BME280;47021;51.340;12.432;2023-04-03T08:22:13;101646.59;;;5.07;52.75
61136;BME280;47021;51.340;12.432;2023-04-03T08:24:38;101652.81;;;5.71;52.25
61136;BME280;47021;51.340;12.432;2023-04-03T08:27:05;101643.59;;;5.64;51.43
61136;BME280;47021;51.340;12.432;2023-04-03T08:29:37;101658.66;;;5.54;51.44
61136;BME280;47021;51.340;12.432;2023-04-03T08:32:03;101658.00;;;5.26;52.09
61136;BME280;47021;51.340;12.432;2023-04-03T08:34:30;101653.41;;;5.78;52.17
61136;BME280;47021;51.340;12.432;2023-04-03T08:36:55;101650.25;;;6.14;50.97
61136;BME280;47021;51.340;12.432;2023-04-03T08:39:21;101650.56;;;5.62;51.60
61136;BME280;47021;51.340;12.432;2023-04-03T08:41:46;101653.59;;;5.51;51.15
61136;BME280;47021;51.340;12.432;2023-04-03T08:49:43;101656.38;;;4.50;50.11
61136;BME280;47021;51.340;12.432;2023-04-03T08:55:19;101654.50;;;5.04;49.82
61136;BME280;47021;51.340;12.432;2023-04-03T08:57:50;101653.31;;;5.59;49.13
61136;BME280;47021;51.340;12.432;2023-04-03T09:00:23;101663.44;;;5.19;49.53
61136;BME280;47021;51.340;12.432;2023-04-03T09:02:50;101662.03;;;5.10;48.06
61136;BME280;47021;51.340;12.432;2023-04-03T09:08:00;101672.50;;;5.53;48.23
61136;BME280;47021;51.340;12.432;2023-04-03T09:10:30;101664.63;;;5.78;48.43
61136;BME280;47021;51.340;12.432;2023-04-03T09:13:24;101664.88;;;5.72;48.95
61136;BME280;47021;51.340;12.432;2023-04-03T09:15:53;101668.78;;;5.82;47.37
61136;BME280;47021;51.340;12.432;2023-04-03T09:18:30;101659.81;;;5.46;48.04
61136;BME280;47021;51.340;12.432;2023-04-03T09:23:59;101662.13;;;5.77;47.18
61136;BME280;47021;51.340;12.432;2023-04-03T09:26:27;101662.78;;;5.82;47.75
61136;BME280;47021;51.340;12.432;2023-04-03T09:28:59;101664.81;;;5.97;48.60
61136;BME280;47021;51.340;12.432;2023-04-03T09:31:38;101676.91;;;5.51;48.74
61136;BME280;47021;51.340;12.432;2023-04-03T09:34:05;101668.63;;;5.42;48.33
61136;BME280;47021;51.340;12.432;2023-04-03T09:39:15;101663.72;;;5.34;48.22
61136;BME280;47021;51.340;12.432;2023-04-03T09:41:55;101658.50;;;5.59;47.60
61136;BME280;47021;51.340;12.432;2023-04-03T09:44:22;101657.50;;;6.28;46.77
61136;BME280;47021;51.340;12.432;2023-04-03T09:46:55;101660.50;;;6.79;44.81
61136;BME280;47021;51.340;12.432;2023-04-03T09:49:26;101661.59;;;6.54;44.67
61136;BME280;47021;51.340;12.432;2023-04-03T09:51:51;101655.13;;;6.64;44.58
61136;BME280;47021;51.340;12.432;2023-04-03T09:57:14;101662.72;;;5.83;45.32
61136;BME280;47021;51.340;12.432;2023-04-03T10:07:51;101649.47;;;7.33;44.19
61136;BME280;47021;51.340;12.432;2023-04-03T10:10:21;101647.00;;;7.30;43.76
61136;BME280;47021;51.340;12.432;2023-04-03T10:12:46;101636.19;;;7.94;43.05
61136;BME280;47021;51.340;12.432;2023-04-03T10:18:14;101639.03;;;7.52;42.36
61136;BME280;47021;51.340;12.432;2023-04-03T10:20:49;101640.81;;;7.70;41.45
61136;BME280;47021;51.340;12.432;2023-04-03T10:26:02;101623.41;;;7.89;40.43
61136;BME280;47021;51.340;12.432;2023-04-03T10:39:25;101615.59;;;7.72;42.39
61136;BME280;47021;51.340;12.432;2023-04-03T10:46:55;101620.78;;;7.72;42.38
61136;BME280;47021;51.340;12.432;2023-04-03T10:55:07;101610.81;;;7.07;43.06
61136;BME280;47021;51.340;12.432;2023-04-03T10:57:38;101611.75;;;6.86;44.39
61136;BME280;47021;51.340;12.432;2023-04-03T11:00:06;101621.88;;;6.72;43.57
61136;BME280;47021;51.340;12.432;2023-04-03T11:02:32;101620.88;;;6.94;43.54
61136;BME280;47021;51.340;12.432;2023-04-03T11:05:13;101619.09;;;7.34;41.75
61136;BME280;47021;51.340;12.432;2023-04-03T11:07:52;101616.16;;;7.96;44.34
61136;BME280;47021;51.340;12.432;2023-04-03T11:10:36;101614.75;;;8.24;42.52
61136;BME280;47021;51.340;12.432;2023-04-03T11:15:38;101605.19;;;8.25;40.69
61136;BME280;47021;51.340;12.432;2023-04-03T11:18:22;101602.75;;;8.39;41.11
61136;BME280;47021;51.340;12.432;2023-04-03T11:21:14;101596.97;;;8.67;40.79
61136;BME280;47021;51.340;12.432;2023-04-03T11:23:44;101600.88;;;7.54;41.64
61136;BME280;47021;51.340;12.432;2023-04-03T11:26:11;101598.47;;;7.31;41.98
61136;BME280;47021;51.340;12.432;2023-04-03T11:28:52;101605.50;;;7.29;42.30
61136;BME280;47021;51.340;12.432;2023-04-03T11:36:43;101589.63;;;7.53;40.80
61136;BME280;47021;51.340;12.432;2023-04-03T11:44:37;101593.84;;;7.56;42.69
61136;BME280;47021;51.340;12.432;2023-04-03T11:50:03;101592.69;;;8.14;41.90
61136;BME280;47021;51.340;12.432;2023-04-03T12:27:03;101556.75;;;8.39;39.95
61136;BME280;47021;51.340;12.432;2023-04-03T12:39:51;101547.69;;;7.78;39.87
61136;BME280;47021;51.340;12.432;2023-04-03T12:42:23;101541.25;;;8.71;40.15
61136;BME280;47021;51.340;12.432;2023-04-03T12:44:56;101540.13;;;8.59;39.50
61136;BME280;47021;51.340;12.432;2023-04-03T12:47:34;101551.88;;;8.33;40.72
61136;BME280;47021;51.340;12.432;2023-04-03T12:50:35;101547.72;;;7.95;41.45
61136;BME280;47021;51.340;12.432;2023-04-03T12:52:59;101546.00;;;7.77;41.98
61136;BME280;47021;51.340;12.432;2023-04-03T12:55:27;101552.97;;;7.94;41.20
61136;BME280;47021;51.340;12.432;2023-04-03T13:00:45;101549.13;;;7.66;41.31
61136;BME280;47021;51.340;12.432;2023-04-03T13:03:21;101558.88;;;7.97;40.50
61136;BME280;47021;51.340;12.432;2023-04-03T13:05:47;101554.59;;;7.96;40.41
61136;BME280;47021;51.340;12.432;2023-04-03T13:08:18;101544.03;;;8.16;40.39
61136;BME280;47021;51.340;12.432;2023-04-03T13:10:54;101544.88;;;7.82;40.12
61136;BME280;47021;51.340;12.432;2023-04-03T13:16:15;101542.31;;;8.67;39.48
61136;BME280;47021;51.340;12.432;2023-04-03T13:18:43;101533.69;;;8.49;39.94
61136;BME280;47021;51.340;12.432;2023-04-03T13:21:15;101540.19;;;7.89;40.99
61136;BME280;47021;51.340;12.432;2023-04-03T13:26:30;101548.16;;;8.03;40.43
61136;BME280;47021;51.340;12.432;2023-04-03T13:29:05;101539.84;;;8.31;41.40
61136;BME280;47021;51.340;12.432;2023-04-03T13:31:40;101544.97;;;8.49;40.09
61136;BME280;47021;51.340;12.432;2023-04-03T13:34:22;101536.69;;;7.90;39.89
61136;BME280;47021;51.340;12.432;2023-04-03T13:41:46;101534.72;;;7.95;39.32
61136;BME280;47021;51.340;12.432;2023-04-03T13:44:31;101531.63;;;8.21;39.09
61136;BME280;47021;51.340;12.432;2023-04-03T13:57:48;101532.41;;;8.06;40.96
61136;BME280;47021;51.340;12.432;2023-04-03T14:02:47;101524.47;;;8.26;39.35
61136;BME280;47021;51.340;12.432;2023-04-03T14:05:19;101532.47;;;8.22;39.93
61136;BME280;47021;51.340;12.432;2023-04-03T14:07:51;101538.72;;;7.66;40.67
61136;BME280;47021;51.340;12.432;2023-04-03T14:10:22;101535.09;;;7.52;41.38
61136;BME280;47021;51.340;12.432;2023-04-03T14:12:53;101529.44;;;7.44;41.56
61136;BME280;47021;51.340;12.432;2023-04-03T14:15:21;101534.09;;;7.54;41.28
61136;BME280;47021;51.340;12.432;2023-04-03T14:17:47;101532.72;;;7.47;41.88
61136;BME280;47021;51.340;12.432;2023-04-03T14:20:25;101529.75;;;7.19;41.86
61136;BME280;47021;51.340;12.432;2023-04-03T14:22:51;101531.28;;;7.23;42.07
61136;BME280;47021;51.340;12.432;2023-04-03T14:25:17;101535.78;;;7.20;41.78
61136;BME280;47021;51.340;12.432;2023-04-03T14:27:50;101534.59;;;7.08;42.48
61136;BME280;47021;51.340;12.432;2023-04-03T14:30:21;101525.53;;;7.52;41.57
61136;BME280;47021;51.340;12.432;2023-04-03T14:35:27;101534.66;;;7.25;41.83
61136;BME280;47021;51.340;12.432;2023-04-03T14:37:54;101531.25;;;7.42;41.07
61136;BME280;47021;51.340;12.432;2023-04-03T14:40:23;101528.94;;;7.71;40.96
61136;BME280;47021;51.340;12.432;2023-04-03T14:42:50;101522.75;;;7.38;41.79
61136;BME280;47021;51.340;12.432;2023-04-03T14:45:33;101521.06;;;7.56;41.51
61136;BME280;47021;51.340;12.432;2023-04-03T14:48:04;101529.09;;;7.33;41.85
61136;BME280;47021;51.340;12.432;2023-04-03T14:50:34;101523.50;;;7.04;41.91
61136;BME280;47021;51.340;12.432;2023-04-03T14:53:06;101523.19;;;7.10;42.19
61136;BME280;47021;51.340;12.432;2023-04-03T14:55:31;101528.34;;;7.12;41.84
61136;BME280;47021;51.340;12.432;2023-04-03T14:58:03;101540.47;;;6.93;41.45
61136;BME280;47021;51.340;12.432;2023-04-03T15:00:29;101524.69;;;6.97;41.77
61136;BME280;47021;51.340;12.432;2023-04-03T15:02:54;101522.94;;;7.52;40.90
61136;BME280;47021;51.340;12.432;2023-04-03T15:05:22;101527.94;;;7.57;41.30
61136;BME280;47021;51.340;12.432;2023-04-03T15:07:54;101536.91;;;6.95;41.61
61136;BME280;47021;51.340;12.432;2023-04-03T15:10:30;101530.06;;;6.74;41.36
61136;BME280;47021;51.340;12.432;2023-04-03T15:12:56;101527.06;;;7.21;40.82
61136;BME280;47021;51.340;12.432;2023-04-03T15:15:30;101528.34;;;7.12;40.44
61136;BME280;47021;51.340;12.432;2023-04-03T15:17:56;101529.09;;;7.33;40.10
61136;BME280;47021;51.340;12.432;2023-04-03T15:20:31;101530.22;;;7.27;40.51
61136;BME280;47021;51.340;12.432;2023-04-03T15:23:02;101536.03;;;6.76;40.61
61136;BME280;47021;51.340;12.432;2023-04-03T15:25:28;101525.88;;;6.90;40.56
61136;BME280;47021;51.340;12.432;2023-04-03T15:27:56;101530.22;;;6.90;40.62
61136;BME280;47021;51.340;12.432;2023-04-03T15:30:36;101529.44;;;7.61;39.65
61136;BME280;47021;51.340;12.432;2023-04-03T15:33:05;101528.31;;;7.49;40.55
61136;BME280;47021;51.340;12.432;2023-04-03T15:35:38;101530.44;;;6.85;40.79
61136;BME280;47021;51.340;12.432;2023-04-03T15:38:17;101525.47;;;6.99;40.57
61136;BME280;47021;51.340;12.432;2023-04-03T15:40:42;101531.72;;;6.95;40.93
61136;BME280;47021;51.340;12.432;2023-04-03T15:43:08;101522.44;;;7.08;41.01
61136;BME280;47021;51.340;12.432;2023-04-03T15:45:33;101527.00;;;6.85;40.46
61136;BME280;47021;51.340;12.432;2023-04-03T15:50:43;101526.09;;;7.04;40.97
61136;BME280;47021;51.340;12.432;2023-04-03T15:53:08;101527.06;;;7.21;40.97
61136;BME280;47021;51.340;12.432;2023-04-03T15:55:34;101526.00;;;7.06;41.67
61136;BME280;47021;51.340;12.432;2023-04-03T15:58:02;101518.53;;;7.00;41.25
61136;BME280;47021;51.340;12.432;2023-04-03T16:00:39;101524.75;;;6.77;40.98
61136;BME280;47021;51.340;12.432;2023-04-03T16:03:06;101519.28;;;7.21;40.13
61136;BME280;47021;51.340;12.432;2023-04-03T16:05:33;101524.47;;;7.21;40.03
61136;BME280;47021;51.340;12.432;2023-04-03T16:08:02;101518.47;;;7.56;39.66
61136;BME280;47021;51.340;12.432;2023-04-03T16:13:26;101519.28;;;7.56;39.68
61136;BME280;47021;51.340;12.432;2023-04-03T16:18:35;101522.44;;;7.08;40.50
61136;BME280;47021;51.340;12.432;2023-04-03T16:23:32;101523.63;;;7.01;41.46
61136;BME280;47021;51.340;12.432;2023-04-03T16:26:15;101516.44;;;7.44;41.54
61136;BME280;47021;51.340;12.432;2023-04-03T16:28:43;101513.63;;;7.48;41.42
61136;BME280;47021;51.340;12.432;2023-04-03T16:31:08;101522.38;;;7.29;41.53
61136;BME280;47021;51.340;12.432;2023-04-03T16:33:39;101515.66;;;6.87;41.84
61136;BME280;47021;51.340;12.432;2023-04-03T16:36:11;101516.78;;;7.00;42.16
61136;BME280;47021;51.340;12.432;2023-04-03T16:38:37;101525.84;;;6.92;41.65
61136;BME280;47021;51.340;12.432;2023-04-03T16:43:52;101527.25;;;6.60;42.11
61136;BME280;47021;51.340;12.432;2023-04-03T16:46:19;101524.88;;;6.74;42.02
61136;BME280;47021;51.340;12.432;2023-04-03T16:48:49;101528.75;;;6.84;41.98
61136;BME280;47021;51.340;12.432;2023-04-03T16:56:39;101520.25;;;6.99;42.12
61136;BME280;47021;51.340;12.432;2023-04-03T16:59:06;101520.59;;;7.29;42.22
61136;BME280;47021;51.340;12.432;2023-04-03T17:04:16;101517.47;;;7.04;42.85
61136;BME280;47021;51.340;12.432;2023-04-03T17:12:20;101521.97;;;7.19;43.89
61136;BME280;47021;51.340;12.432;2023-04-03T17:14:53;101521.41;;;6.94;43.42
61136;BME280;47021;51.340;12.432;2023-04-03T17:17:32;101516.44;;;7.08;43.54
61136;BME280;47021;51.340;12.432;2023-04-03T17:19:59;101522.94;;;7.17;43.42
61136;BME280;47021;51.340;12.432;2023-04-03T17:22:24;101517.56;;;7.38;43.00